Time;durP1;ratioP1;P1;durP2;ratioP2;P2;SDS_P1;SDS_P2;PMS_P1;PMS_P2;Temp;Humidity;BMP_temperature;BMP_pressure;BME280_temperature;BME280_humidity;BME280_pressure;Samples;Min_cycle;Max_cycle;Signal;HPM_P1;HPM_P2
2022/11/28 00:00:16;;;;;;;695.58;518.80;;;;;;;-142.06;100.00;58987.19;7388763;19;20018;-48
2022/11/28 00:02:49;;;;;;;549.67;445.42;;;;;;;-142.06;100.00;58987.19;7381092;19;20015;-48
2022/11/28 00:05:23;;;;;;;458.50;401.55;;;;;;;-142.06;100.00;58987.19;7387555;19;20010;-51
2022/11/28 00:07:56;;;;;;;433.17;386.13;;;;;;;-142.06;100.00;58987.19;7388159;19;20077;-52
2022/11/28 00:10:32;;;;;;;442.73;395.77;;;;;;;-142.06;100.00;58987.19;7386955;19;20354;-47
2022/11/28 00:13:06;;;;;;;411.20;365.23;;;;;;;-142.06;100.00;58987.19;7387647;19;20034;-48
2022/11/28 00:15:39;;;;;;;419.40;364.67;;;;;;;-142.06;100.00;58987.19;7382181;19;20018;-48
2022/11/28 00:18:12;;;;;;;410.08;359.42;;;;;;;-142.06;100.00;58987.19;7386821;19;20022;-51
2022/11/28 00:20:46;;;;;;;404.45;355.67;;;;;;;-142.06;100.00;58987.19;7386576;19;20017;-50
2022/11/28 00:23:19;;;;;;;416.25;370.50;;;;;;;-142.06;100.00;58987.19;7384942;19;20040;-52
2022/11/28 00:26:02;;;;;;;420.65;375.33;;;;;;;-142.06;100.00;58987.19;7384668;19;20021;-53
2022/11/28 00:28:36;;;;;;;441.65;393.85;;;;;;;-142.06;100.00;58987.19;7382430;19;20010;-50
2022/11/28 00:31:09;;;;;;;426.25;380.60;;;;;;;-142.06;100.00;58987.19;7386058;19;20074;-51
2022/11/28 00:33:42;;;;;;;410.13;361.23;;;;;;;-142.06;100.00;58987.19;7379149;19;20019;-53
2022/11/28 00:36:16;;;;;;;403.40;350.58;;;;;;;-142.06;100.00;58987.19;7385998;19;20011;-49
2022/11/28 00:38:50;;;;;;;400.77;351.13;;;;;;;-142.06;100.00;58987.19;7387618;19;20025;-51
2022/11/28 00:41:27;;;;;;;411.92;360.73;;;;;;;-142.06;100.00;58987.19;7380515;19;20350;-48
2022/11/28 00:44:01;;;;;;;426.20;381.13;;;;;;;-142.06;100.00;58987.19;7383182;19;20493;-48
2022/11/28 00:46:35;;;;;;;425.80;380.13;;;;;;;-142.06;100.00;58987.19;7382152;19;20015;-48
2022/11/28 00:49:08;;;;;;;429.05;383.08;;;;;;;-142.06;100.00;58987.19;7386446;19;20171;-51
2022/11/28 00:51:42;;;;;;;431.67;385.42;;;;;;;-142.06;100.00;58987.19;7392258;19;20023;-47
2022/11/28 00:54:16;;;;;;;441.15;394.15;;;;;;;-142.06;100.00;58987.19;7387457;19;20098;-47
2022/11/28 00:56:52;;;;;;;407.08;362.25;;;;;;;-142.06;100.00;58987.19;7392982;19;20081;-49
2022/11/28 00:59:25;;;;;;;416.48;366.33;;;;;;;-142.06;100.00;58987.19;7387385;19;20014;-48
2022/11/28 01:01:58;;;;;;;403.30;349.25;;;;;;;-142.06;100.00;58987.19;7393740;19;20066;-47
2022/11/28 01:04:31;;;;;;;401.30;347.77;;;;;;;-142.06;100.00;58987.19;7393377;19;20010;-51
2022/11/28 01:07:05;;;;;;;423.70;378.13;;;;;;;-142.06;100.00;58987.19;7389857;19;20019;-48
2022/11/28 01:09:38;;;;;;;400.95;357.13;;;;;;;-142.06;100.00;58987.19;7393527;19;20074;-46
2022/11/28 01:12:14;;;;;;;409.65;364.52;;;;;;;-142.06;100.00;58987.19;7389121;19;20018;-48
2022/11/28 01:14:47;;;;;;;414.35;369.60;;;;;;;-142.06;100.00;58987.19;7393212;19;20356;-47
2022/11/28 01:17:20;;;;;;;417.17;372.17;;;;;;;-142.06;100.00;58987.19;7392531;19;20010;-51
2022/11/28 01:19:56;;;;;;;419.17;373.08;;;;;;;-142.06;100.00;58987.19;7391287;19;20014;-47
2022/11/28 01:22:30;;;;;;;412.60;367.50;;;;;;;-142.06;100.00;58987.19;7391943;19;20021;-48
2022/11/28 01:25:03;;;;;;;441.17;394.00;;;;;;;-142.06;100.00;58987.19;7388256;19;20386;-55
2022/11/28 01:27:38;;;;;;;604.85;476.27;;;;;;;-142.06;100.00;58987.19;7390309;19;20396;-46
2022/11/28 01:30:13;;;;;;;673.67;492.10;;;;;;;-142.06;100.00;58987.19;7393561;19;20015;-50
2022/11/28 01:32:47;;;;;;;709.25;519.45;;;;;;;-142.06;100.00;58987.19;7389163;19;20529;-53
2022/11/28 01:35:20;;;;;;;525.33;424.58;;;;;;;-142.06;100.00;58987.19;7393432;19;20007;-51
2022/11/28 01:37:53;;;;;;;699.88;512.78;;;;;;;-142.06;100.00;58987.19;7383833;19;20517;-49
2022/11/28 01:40:27;;;;;;;708.60;514.20;;;;;;;-142.06;100.00;58987.19;7392280;19;20034;-49
2022/11/28 01:43:03;;;;;;;633.67;487.38;;;;;;;-142.06;100.00;58987.19;7388770;19;20078;-47
2022/11/28 01:45:38;;;;;;;433.63;386.92;;;;;;;-142.06;100.00;58987.19;7389969;19;20011;-47
2022/11/28 01:48:15;;;;;;;695.40;510.92;;;;;;;-142.06;100.00;58987.19;7392096;19;20027;-48
2022/11/28 01:50:50;;;;;;;710.42;532.15;;;;;;;-142.06;100.00;58987.19;7382761;19;20078;-51
2022/11/28 01:53:24;;;;;;;704.22;523.40;;;;;;;-142.06;100.00;58987.19;7390112;19;20018;-49
2022/11/28 01:56:05;;;;;;;506.08;423.73;;;;;;;-142.06;100.00;58987.19;7392121;19;20037;-50
2022/11/28 01:58:45;;;;;;;628.38;488.42;;;;;;;-142.06;100.00;58987.19;7391742;19;20010;-47
2022/11/28 02:01:19;;;;;;;559.40;455.23;;;;;;;-142.06;100.00;58987.19;7387473;19;20022;-55
2022/11/28 02:03:55;;;;;;;507.25;436.38;;;;;;;-142.06;100.00;58987.19;7390490;19;20603;-47
2022/11/28 02:06:29;;;;;;;427.85;382.25;;;;;;;-142.06;100.00;58987.19;7390601;19;20399;-48
2022/11/28 02:09:03;;;;;;;440.80;393.60;;;;;;;-142.06;100.00;58987.19;7386482;19;20015;-49
2022/11/28 02:12:00;;;;;;;421.58;375.23;;;;;;;-142.06;100.00;58987.19;7390205;19;20404;-48
2022/11/28 02:14:55;;;;;;;405.77;359.67;;;;;;;-142.06;100.00;58987.19;7390313;19;20013;-47
2022/11/28 02:17:44;;;;;;;412.05;364.15;;;;;;;-142.06;100.00;58987.19;7386006;19;20025;-52
2022/11/28 02:20:50;;;;;;;419.48;373.83;;;;;;;-142.06;100.00;58987.19;7390636;19;20010;-48
2022/11/28 02:23:28;;;;;;;410.95;365.70;;;;;;;-142.06;100.00;58987.19;7389115;19;20010;-54
2022/11/28 02:26:20;;;;;;;424.23;378.27;;;;;;;-142.06;100.00;58987.19;7385686;19;20022;-51
2022/11/28 02:29:15;;;;;;;419.65;374.92;;;;;;;-142.06;100.00;58987.19;7390364;19;20033;-49
2022/11/28 02:32:20;;;;;;;422.92;377.27;;;;;;;-142.06;100.00;58987.19;7388677;19;20521;-46
2022/11/28 02:35:04;;;;;;;426.27;380.38;;;;;;;-142.06;100.00;58987.19;7390265;19;20334;-51
2022/11/28 02:37:45;;;;;;;406.02;354.08;;;;;;;-142.06;100.00;58987.19;7390126;19;20126;-51
2022/11/28 02:40:28;;;;;;;401.60;346.08;;;;;;;-142.06;100.00;58987.19;7390310;19;20019;-50
2022/11/28 02:43:13;;;;;;;406.20;361.40;;;;;;;-142.06;100.00;58987.19;7385782;19;20033;-51
2022/11/28 02:45:58;;;;;;;399.52;355.33;;;;;;;-142.06;100.00;58987.19;7389921;19;20086;-53
2022/11/28 02:48:37;;;;;;;424.08;378.70;;;;;;;-142.06;100.00;58987.19;7383152;19;20498;-48
2022/11/28 02:51:20;;;;;;;432.98;387.88;;;;;;;-142.06;100.00;58987.19;7388633;19;20014;-47
2022/11/28 02:53:58;;;;;;;455.63;405.60;;;;;;;-142.06;100.00;58987.19;7384019;19;20067;-47
2022/11/28 02:56:31;;;;;;;417.13;371.27;;;;;;;-142.06;100.00;58987.19;7388059;19;20458;-49
2022/11/28 02:59:05;;;;;;;426.92;380.95;;;;;;;-142.06;100.00;58987.19;7387308;19;20051;-48
2022/11/28 03:01:42;;;;;;;410.85;365.70;;;;;;;-142.06;100.00;58987.19;7388723;19;20006;-47
2022/11/28 03:04:32;;;;;;;408.08;361.15;;;;;;;-142.06;100.00;58987.19;7386506;19;20003;-47
2022/11/28 03:07:23;;;;;;;416.27;371.00;;;;;;;-142.06;100.00;58987.19;7388602;19;20033;-48
2022/11/28 03:10:09;;;;;;;428.48;381.95;;;;;;;-142.06;100.00;58987.19;7383967;19;20014;-46
2022/11/28 03:12:57;;;;;;;640.55;487.50;;;;;;;-142.06;100.00;58987.19;7389055;19;20093;-49
2022/11/28 03:15:39;;;;;;;426.27;380.70;;;;;;;-142.06;100.00;58987.19;7389267;19;20021;-47
2022/11/28 03:18:17;;;;;;;675.20;499.48;;;;;;;-142.06;100.00;58987.19;7388474;19;20011;-51
2022/11/28 03:20:56;;;;;;;686.33;507.83;;;;;;;-142.06;100.00;58987.19;7387256;19;20422;-49
2022/11/28 03:23:40;;;;;;;694.45;513.22;;;;;;;-142.06;100.00;58987.19;7388253;19;20030;-47
2022/11/28 03:26:18;;;;;;;592.47;467.23;;;;;;;-142.06;100.00;58987.19;7386800;19;20011;-48
2022/11/28 03:28:56;;;;;;;;;;;;;;;-142.06;100.00;58987.19;7390262;19;20085;-51
2022/11/28 03:31:37;;;;;;;697.60;516.95;;;;;;;-142.06;100.00;58987.19;7388039;19;20426;-54
2022/11/28 03:34:15;;;;;;;686.65;504.20;;;;;;;-142.06;100.00;58987.19;7388206;19;20428;-48
2022/11/28 03:36:51;;;;;;;431.00;380.90;;;;;;;-142.06;100.00;58987.19;7386433;19;20415;-47
2022/11/28 03:39:30;;;;;;;420.63;375.65;;;;;;;-142.06;100.00;58987.19;7387697;19;20487;-51
2022/11/28 03:42:08;;;;;;;618.47;485.20;;;;;;;-142.06;100.00;58987.19;7383074;19;20017;-47
2022/11/28 03:44:48;;;;;;;495.10;419.05;;;;;;;-142.06;100.00;58987.19;7386531;19;20013;-52
2022/11/28 03:47:21;;;;;;;503.98;425.63;;;;;;;-142.06;100.00;58987.19;7382241;19;20017;-49
2022/11/28 03:50:00;;;;;;;419.17;374.35;;;;;;;-142.06;100.00;58987.19;7387611;19;20015;-49
2022/11/28 03:52:37;;;;;;;403.48;359.08;;;;;;;-142.06;100.00;58987.19;7385946;19;20010;-55
2022/11/28 03:55:18;;;;;;;410.88;366.27;;;;;;;-142.06;100.00;58987.19;7389024;19;20038;-49
2022/11/28 03:57:58;;;;;;;411.60;366.52;;;;;;;-142.06;100.00;58987.19;7385594;19;20082;-52
2022/11/28 04:00:32;;;;;;;422.73;377.48;;;;;;;-142.06;100.00;58987.19;7387496;19;20487;-48
2022/11/28 04:03:14;;;;;;;397.30;353.25;;;;;;;-142.06;100.00;58987.19;7387472;19;20015;-49
2022/11/28 04:05:52;;;;;;;397.90;350.33;;;;;;;-142.06;100.00;58987.19;7387637;19;20011;-46
2022/11/28 04:08:31;;;;;;;398.83;348.20;;;;;;;-142.06;100.00;58987.19;7387967;19;20018;-49
2022/11/28 04:11:13;;;;;;;407.25;358.65;;;;;;;-142.06;100.00;58987.19;7386465;19;20010;-52
2022/11/28 04:13:51;;;;;;;423.27;378.17;;;;;;;-142.06;100.00;58987.19;7385768;19;20399;-52
2022/11/28 04:16:27;;;;;;;;;;;;;;;-142.06;100.00;58987.19;7386308;19;20011;-50
2022/11/28 04:19:06;;;;;;;414.70;369.33;;;;;;;-142.06;100.00;58987.19;7386556;19;19983;-50
2022/11/28 04:21:44;;;;;;;418.92;372.52;;;;;;;-142.06;100.00;58987.19;7381373;19;20021;-51
2022/11/28 04:24:21;;;;;;;413.42;368.08;;;;;;;-142.06;100.00;58987.19;7382893;19;20566;-52
2022/11/28 04:27:01;;;;;;;443.42;395.83;;;;;;;-142.06;100.00;58987.19;7380595;19;20469;-51
2022/11/28 04:29:41;;;;;;;432.45;385.85;;;;;;;-142.06;100.00;58987.19;7385328;19;20007;-51
2022/11/28 04:32:18;;;;;;;462.75;414.00;;;;;;;-142.06;100.00;58987.19;7381408;19;20023;-50
2022/11/28 04:34:56;;;;;;;425.55;379.30;;;;;;;-142.06;100.00;58987.19;7387559;19;20015;-47
2022/11/28 04:37:33;;;;;;;418.60;373.15;;;;;;;-142.06;100.00;58987.19;7382456;19;20018;-57
2022/11/28 04:40:07;;;;;;;423.75;378.00;;;;;;;-142.06;100.00;58987.19;7386543;19;20017;-54
2022/11/28 04:42:47;;;;;;;406.58;360.10;;;;;;;-142.06;100.00;58987.19;7385477;19;20010;-53
2022/11/28 04:45:25;;;;;;;509.73;418.73;;;;;;;-142.06;100.00;58987.19;7384535;19;20679;-53
2022/11/28 04:47:58;;;;;;;593.30;474.50;;;;;;;-142.06;100.00;58987.19;7386527;19;20101;-53
2022/11/28 04:50:38;;;;;;;687.80;525.67;;;;;;;-142.06;100.00;58987.19;7380578;19;20015;-53
2022/11/28 04:53:19;;;;;;;607.65;474.02;;;;;;;-142.06;100.00;58987.19;7382670;19;20014;-52
2022/11/28 04:56:01;;;;;;;442.15;394.45;;;;;;;-142.06;100.00;58987.19;7382565;19;20600;-53
2022/11/28 04:58:41;;;;;;;712.97;536.88;;;;;;;-142.06;100.00;58987.19;7386452;19;20007;-50
2022/11/28 05:01:19;;;;;;;691.15;516.60;;;;;;;-142.06;100.00;58987.19;7382909;19;20014;-53
2022/11/28 05:03:55;;;;;;;713.80;536.50;;;;;;;-142.06;100.00;58987.19;7384620;19;20407;-53
2022/11/28 05:06:32;;;;;;;509.95;413.30;;;;;;;-142.06;100.00;58987.19;7380654;19;20403;-53
2022/11/28 05:09:05;;;;;;;610.80;477.17;;;;;;;-142.06;100.00;58987.19;7384806;19;20010;-47
2022/11/28 05:11:39;;;;;;;703.00;517.13;;;;;;;-142.06;100.00;58987.19;7379826;19;20011;-56
2022/11/28 05:14:17;;;;;;;690.95;514.90;;;;;;;-142.06;100.00;58987.19;7381544;19;20028;-53
2022/11/28 05:16:50;;;;;;;;;;;;;;;-142.06;100.00;58987.19;7382930;19;20024;-49
2022/11/28 05:19:26;;;;;;;480.25;431.20;;;;;;;-142.06;100.00;58987.19;7381103;19;20278;-53
2022/11/28 05:21:59;;;;;;;426.52;381.02;;;;;;;-142.06;100.00;58987.19;7381888;19;20011;-50
2022/11/28 05:24:33;;;;;;;447.42;390.13;;;;;;;-142.06;100.00;58987.19;7380544;19;20018;-53
2022/11/28 05:27:06;;;;;;;442.70;378.55;;;;;;;-142.06;100.00;58987.19;7380677;19;20015;-55
2022/11/28 05:29:43;;;;;;;414.15;369.35;;;;;;;-142.06;100.00;58987.19;7381290;19;20074;-51
2022/11/28 05:32:16;;;;;;;432.95;386.88;;;;;;;-142.06;100.00;58987.19;7379992;19;20617;-53
2022/11/28 05:34:49;;;;;;;425.83;380.48;;;;;;;-142.06;100.00;58987.19;7381779;19;20082;-53
2022/11/28 05:37:22;;;;;;;429.13;382.90;;;;;;;-142.06;100.00;58987.19;7382262;19;20019;-54
2022/11/28 05:39:55;;;;;;;437.58;391.50;;;;;;;-142.06;100.00;58987.19;7388335;19;20362;-50
2022/11/28 05:42:29;;;;;;;441.85;394.70;;;;;;;-142.06;100.00;58987.19;7388708;19;20014;-53
2022/11/28 05:45:04;;;;;;;424.63;378.33;;;;;;;-142.06;100.00;58987.19;7382940;19;20485;-56
2022/11/28 05:47:38;;;;;;;421.92;378.08;;;;;;;-142.06;100.00;58987.19;7389095;19;20014;-53
2022/11/28 05:50:13;;;;;;;423.25;378.33;;;;;;;-142.06;100.00;58987.19;7383347;19;20343;-55
2022/11/28 05:52:46;;;;;;;420.48;375.95;;;;;;;-142.06;100.00;58987.19;7387563;19;20022;-53
2022/11/28 05:55:20;;;;;;;433.40;387.58;;;;;;;-142.06;100.00;58987.19;7387657;19;20041;-51
2022/11/28 05:57:53;;;;;;;453.20;405.48;;;;;;;-142.06;100.00;58987.19;7387058;19;20338;-50
2022/11/28 06:00:29;;;;;;;433.38;387.38;;;;;;;-142.06;100.00;58987.19;7391735;19;20015;-52
2022/11/28 06:03:03;;;;;;;443.15;396.10;;;;;;;-142.06;100.00;58987.19;7386255;19;20529;-54
2022/11/28 06:05:37;;;;;;;442.40;395.77;;;;;;;-142.06;100.00;58987.19;7384974;19;20014;-49
2022/11/28 06:08:11;;;;;;;449.95;402.77;;;;;;;-142.06;100.00;58987.19;7389158;19;20015;-54
2022/11/28 06:10:44;;;;;;;451.98;403.58;;;;;;;-142.06;100.00;58987.19;7387007;19;20078;-51
2022/11/28 06:13:18;;;;;;;443.63;396.70;;;;;;;-142.06;100.00;58987.19;7387002;19;20045;-54
2022/11/28 06:15:56;;;;;;;433.30;385.45;;;;;;;-142.06;100.00;58987.19;7385039;19;20016;-52
2022/11/28 06:18:29;;;;;;;437.60;391.00;;;;;;;-142.06;100.00;58987.19;7388969;19;20010;-52
2022/11/28 06:21:02;;;;;;;550.00;453.45;;;;;;;-142.06;100.00;58987.19;7387294;19;20371;-54
2022/11/28 06:23:37;;;;;;;425.73;379.67;;;;;;;-142.06;100.00;58987.19;7383956;19;20706;-50
2022/11/28 06:26:11;;;;;;;555.63;460.90;;;;;;;-142.06;100.00;58987.19;7386522;19;20014;-53
2022/11/28 06:28:46;;;;;;;635.60;510.23;;;;;;;-142.06;100.00;58987.19;7381651;19;20469;-52
2022/11/28 06:31:24;;;;;;;673.25;528.83;;;;;;;-142.06;100.00;58987.19;7389887;19;20407;-53
2022/11/28 06:33:57;;;;;;;706.15;537.25;;;;;;;-142.06;100.00;58987.19;7388913;19;20007;-56
2022/11/28 06:36:31;;;;;;;624.55;520.50;;;;;;;-142.06;100.00;58987.19;7388659;19;20010;-53
2022/11/28 06:39:04;;;;;;;498.40;443.80;;;;;;;-142.06;100.00;58987.19;7390378;19;20613;-54
2022/11/28 06:41:38;;;;;;;600.03;534.22;;;;;;;-142.06;100.00;58987.19;7383618;19;20007;-51
2022/11/28 06:44:11;;;;;;;566.40;495.80;;;;;;;-142.06;100.00;58987.19;7389687;19;20021;-53
2022/11/28 06:46:47;;;;;;;553.35;489.88;;;;;;;-142.06;100.00;58987.19;7388755;19;20435;-53
2022/11/28 06:49:20;;;;;;;449.92;401.80;;;;;;;-142.06;100.00;58987.19;7386676;19;20041;-54
2022/11/28 06:51:53;;;;;;;439.00;391.33;;;;;;;-142.06;100.00;58987.19;7387239;19;20019;-52
2022/11/28 06:54:26;;;;;;;461.02;412.15;;;;;;;-142.06;100.00;58987.19;7381175;19;20041;-51
2022/11/28 06:57:00;;;;;;;568.63;501.85;;;;;;;-142.06;100.00;58987.19;7386428;19;20033;-53
2022/11/28 06:59:33;;;;;;;586.70;508.95;;;;;;;-142.06;100.00;58987.19;7387663;19;20374;-50
2022/11/28 07:02:10;;;;;;;603.40;528.60;;;;;;;-142.06;100.00;58987.19;7383703;19;20118;-53
2022/11/28 07:04:43;;;;;;;608.58;539.50;;;;;;;-142.06;100.00;58987.19;7385231;19;20015;-53
2022/11/28 07:07:16;;;;;;;595.53;517.50;;;;;;;-142.06;100.00;58987.19;7380917;19;20014;-55
2022/11/28 07:09:50;;;;;;;599.13;519.63;;;;;;;-142.06;100.00;58987.19;7383385;19;20017;-53
2022/11/28 07:12:23;;;;;;;588.47;507.77;;;;;;;-142.06;100.00;58987.19;7384697;19;20082;-53
2022/11/28 07:14:57;;;;;;;585.22;507.35;;;;;;;-142.06;100.00;58987.19;7383466;19;20011;-53
2022/11/28 07:17:32;;;;;;;579.50;499.60;;;;;;;-142.06;100.00;58987.19;7386488;19;20017;-55
2022/11/28 07:20:06;;;;;;;562.60;491.30;;;;;;;-142.06;100.00;58987.19;7380948;19;20014;-51
2022/11/28 07:22:42;;;;;;;540.13;481.48;;;;;;;-142.06;100.00;58987.19;7386870;19;20324;-54
2022/11/28 07:25:16;;;;;;;493.75;441.50;;;;;;;-142.06;100.00;58987.19;7380277;19;20353;-55
2022/11/28 07:27:50;;;;;;;460.15;411.33;;;;;;;-142.06;100.00;58987.19;7383222;19;20382;-53
2022/11/28 07:30:23;;;;;;;438.88;393.08;;;;;;;-142.06;100.00;58987.19;7385228;19;20037;-52
2022/11/28 07:32:59;;;;;;;436.70;390.58;;;;;;;-142.06;100.00;58987.19;7380801;19;20532;-53
2022/11/28 07:35:32;;;;;;;417.92;372.67;;;;;;;-142.06;100.00;58987.19;7386208;19;20022;-53
2022/11/28 07:38:05;;;;;;;421.80;376.92;;;;;;;-142.06;100.00;58987.19;7388218;19;20002;-53
2022/11/28 07:40:38;;;;;;;428.35;382.67;;;;;;;-142.06;100.00;58987.19;7385906;19;20970;-53
2022/11/28 07:43:12;;;;;;;430.42;385.60;;;;;;;-142.06;100.00;58987.19;7385206;19;20033;-54
2022/11/28 07:45:45;;;;;;;453.30;405.70;;;;;;;-142.06;100.00;58987.19;7379052;19;20007;-52
2022/11/28 07:48:21;;;;;;;447.50;400.17;;;;;;;-142.06;100.00;58987.19;7383809;19;20061;-53
2022/11/28 07:50:54;;;;;;;450.30;402.40;;;;;;;-142.06;100.00;58987.19;7382309;19;20034;-55
2022/11/28 07:53:28;;;;;;;448.05;400.05;;;;;;;-142.06;100.00;58987.19;7384535;19;20018;-54
2022/11/28 07:56:02;;;;;;;439.70;392.90;;;;;;;-142.06;100.00;58987.19;7384595;19;20070;-49
2022/11/28 07:58:35;;;;;;;466.80;417.77;;;;;;;-142.06;100.00;58987.19;7377634;19;20018;-56
2022/11/28 08:01:14;;;;;;;460.92;412.55;;;;;;;-142.06;100.00;58987.19;7382689;19;20473;-49
2022/11/28 08:03:52;;;;;;;471.35;422.70;;;;;;;-142.06;100.00;58987.19;7381558;19;20405;-56
2022/11/28 08:06:27;;;;;;;466.15;418.08;;;;;;;-142.06;100.00;58987.19;7381290;19;20015;-48
2022/11/28 08:09:02;;;;;;;474.85;425.83;;;;;;;-142.06;100.00;58987.19;7385463;19;20018;-48
2022/11/28 08:11:35;;;;;;;482.02;432.05;;;;;;;-142.06;100.00;58987.19;7378599;19;20035;-48
2022/11/28 08:14:09;;;;;;;464.10;415.10;;;;;;;-142.06;100.00;58987.19;7381657;19;20015;-53
2022/11/28 08:16:43;;;;;;;469.75;420.42;;;;;;;-142.06;100.00;58987.19;7377382;19;20411;-55
2022/11/28 08:19:19;;;;;;;463.33;414.70;;;;;;;-142.06;100.00;58987.19;7381701;19;20041;-50
2022/11/28 08:21:53;;;;;;;467.23;419.05;;;;;;;-142.06;100.00;58987.19;7380220;19;20015;-49
2022/11/28 08:24:26;;;;;;;467.73;418.83;;;;;;;-142.06;100.00;58987.19;7376611;19;20018;-48
2022/11/28 08:26:59;;;;;;;456.63;409.05;;;;;;;-142.06;100.00;58987.19;7384250;19;20014;-47
2022/11/28 08:29:33;;;;;;;508.20;454.13;;;;;;;-142.06;100.00;58987.19;7377853;19;20014;-56
2022/11/28 08:32:06;;;;;;;463.73;415.77;;;;;;;-142.06;100.00;58987.19;7384390;19;20010;-53
2022/11/28 08:34:42;;;;;;;501.25;448.58;;;;;;;-142.06;100.00;58987.19;7381685;19;20117;-51
2022/11/28 08:37:16;;;;;;;520.47;465.88;;;;;;;-142.06;100.00;58987.19;7383119;19;20029;-49
2022/11/28 08:39:49;;;;;;;529.20;472.80;;;;;;;-142.06;100.00;58987.19;7384208;19;20006;-50
2022/11/28 08:42:22;;;;;;;566.97;506.73;;;;;;;-142.06;100.00;58987.19;7380441;19;20098;-52
2022/11/28 08:44:59;;;;;;;484.17;433.77;;;;;;;-142.06;100.00;58987.19;7384660;19;20351;-47
2022/11/28 08:47:34;;;;;;;457.95;408.90;;;;;;;-142.06;100.00;58987.19;7386179;19;20026;-48
2022/11/28 08:50:12;;;;;;;533.50;475.92;;;;;;;-142.06;100.00;58987.19;7384628;19;20038;-49
2022/11/28 08:52:46;;;;;;;502.77;448.75;;;;;;;-142.06;100.00;58987.19;7383746;19;20348;-48
2022/11/28 08:55:19;;;;;;;541.38;484.38;;;;;;;-142.06;100.00;58987.19;7377441;19;20027;-48
2022/11/28 08:57:52;;;;;;;547.80;488.48;;;;;;;-142.06;100.00;58987.19;7385714;19;20029;-48
2022/11/28 09:00:26;;;;;;;459.08;409.13;;;;;;;-142.06;100.00;58987.19;7383347;19;20018;-49
2022/11/28 09:03:02;;;;;;;469.65;419.35;;;;;;;-142.06;100.00;58987.19;7385050;19;20569;-47
2022/11/28 09:05:39;;;;;;;502.83;448.13;;;;;;;-142.06;100.00;58987.19;7382279;19;20085;-48
2022/11/28 09:08:15;;;;;;;490.13;436.48;;;;;;;-142.06;100.00;58987.19;7382187;19;20089;-50
2022/11/28 09:10:49;;;;;;;483.48;430.45;;;;;;;-142.06;100.00;58987.19;7387452;19;20018;-48
2022/11/28 09:13:22;;;;;;;462.65;412.40;;;;;;;-142.06;100.00;58987.19;7386644;19;20474;-52
2022/11/28 09:15:56;;;;;;;443.23;395.35;;;;;;;-142.06;100.00;58987.19;7391134;19;20014;-48
2022/11/28 09:18:29;;;;;;;431.90;384.58;;;;;;;-142.06;100.00;58987.19;7391737;19;20083;-49
2022/11/28 09:21:08;;;;;;;440.40;392.20;;;;;;;-142.06;100.00;58987.19;7387579;19;20010;-50
2022/11/28 09:23:41;;;;;;;441.33;394.40;;;;;;;-142.06;100.00;58987.19;7390804;19;20081;-48
2022/11/28 09:26:15;;;;;;;467.45;418.45;;;;;;;-142.06;100.00;58987.19;7376260;19;20018;-52
2022/11/28 09:28:49;;;;;;;470.98;422.30;;;;;;;-142.06;100.00;58987.19;7386688;19;20375;-49
2022/11/28 09:31:24;;;;;;;451.02;404.08;;;;;;;-142.06;100.00;58987.19;7388711;19;20018;-48
2022/11/28 09:33:58;;;;;;;452.83;404.85;;;;;;;-142.06;100.00;58987.19;7385800;19;20438;-51
2022/11/28 09:36:34;;;;;;;466.63;417.67;;;;;;;-142.06;100.00;58987.19;7388415;19;20024;-50
2022/11/28 09:39:08;;;;;;;477.73;428.08;;;;;;;-142.06;100.00;58987.19;7384795;19;20006;-47
2022/11/28 09:41:57;;;;;;;469.42;420.30;;;;;;;-142.06;100.00;58987.19;7389277;19;20360;-53
2022/11/28 09:44:35;;;;;;;495.52;444.58;;;;;;;-142.06;100.00;58987.19;7382737;19;20010;-47
2022/11/28 09:47:13;;;;;;;472.15;423.58;;;;;;;-142.06;100.00;58987.19;7387057;19;20007;-52
2022/11/28 09:49:51;;;;;;;484.08;434.17;;;;;;;-142.06;100.00;58987.19;7384570;19;20082;-48
2022/11/28 09:52:37;;;;;;;457.92;410.77;;;;;;;-142.06;100.00;58987.19;7391130;19;20254;-49
2022/11/28 09:55:21;;;;;;;447.95;400.52;;;;;;;-142.06;100.00;58987.19;7382522;19;20015;-48
2022/11/28 09:57:56;;;;;;;447.15;400.80;;;;;;;-142.06;100.00;58987.19;7389937;19;20015;-49
2022/11/28 10:00:36;;;;;;;450.20;402.65;;;;;;;-142.06;100.00;58987.19;7382266;19;20018;-48
2022/11/28 10:03:33;;;;;;;442.98;396.55;;;;;;;-142.06;100.00;58987.19;7389229;19;20034;-47
2022/11/28 10:06:16;;;;;;;454.05;405.85;;;;;;;-142.06;100.00;58987.19;7390547;19;20006;-54
2022/11/28 10:09:10;;;;;;;442.85;396.15;;;;;;;-142.06;100.00;58987.19;7390341;19;20050;-51
2022/11/28 10:11:55;;;;;;;458.60;410.90;;;;;;;-142.06;100.00;58987.19;7392042;19;20500;-49
2022/11/28 10:14:56;;;;;;;456.58;408.58;;;;;;;-142.06;100.00;58987.19;7384017;19;20034;-61
2022/11/28 10:17:42;;;;;;;552.53;483.95;;;;;;;-142.06;100.00;58987.19;7388323;19;20006;-58
2022/11/28 10:20:22;;;;;;;550.47;490.05;;;;;;;-142.06;100.00;58987.19;7392126;19;20006;-60
2022/11/28 10:23:01;;;;;;;559.63;497.33;;;;;;;-142.06;100.00;58987.19;7382555;19;20014;-59
2022/11/28 10:25:41;;;;;;;528.58;469.92;;;;;;;-142.06;100.00;58987.19;7387839;19;20006;-60
2022/11/28 10:28:21;;;;;;;503.40;450.40;;;;;;;-142.06;100.00;58987.19;7383153;19;20354;-60
2022/11/28 10:31:00;;;;;;;453.35;406.17;;;;;;;-142.06;100.00;58987.19;7389170;19;20029;-60
2022/11/28 10:33:39;;;;;;;439.02;391.95;;;;;;;-142.06;100.00;58987.19;7385302;19;20014;-59
2022/11/28 10:36:18;;;;;;;439.90;393.05;;;;;;;-142.06;100.00;58987.19;7388642;19;20013;-60
2022/11/28 10:38:52;;;;;;;466.85;418.63;;;;;;;-142.06;100.00;58987.19;7385761;19;20074;-59
2022/11/28 10:41:35;;;;;;;577.30;500.27;;;;;;;-142.06;100.00;58987.19;7386719;19;20529;-60
2022/11/28 10:44:16;;;;;;;459.95;411.77;;;;;;;-142.06;100.00;58987.19;7387005;19;20015;-59
2022/11/28 10:47:00;;;;;;;568.45;496.90;;;;;;;-142.06;100.00;58987.19;7386050;19;20022;-59
2022/11/28 10:49:45;;;;;;;581.22;508.95;;;;;;;-142.06;100.00;58987.19;7384772;19;20574;-59
2022/11/28 10:52:26;;;;;;;582.88;508.38;;;;;;;-142.06;100.00;58987.19;7389258;19;20014;-60
2022/11/28 10:55:13;;;;;;;584.30;507.23;;;;;;;-142.06;100.00;58987.19;7380739;19;20021;-59
2022/11/28 10:57:57;;;;;;;592.90;526.33;;;;;;;-142.06;100.00;58987.19;7387886;19;20006;-60
2022/11/28 11:00:30;;;;;;;592.53;526.05;;;;;;;-142.06;100.00;58987.19;7376786;19;20021;-59
2022/11/28 11:03:07;;;;;;;587.92;525.25;;;;;;;-142.06;100.00;58987.19;7387117;19;20038;-60
2022/11/28 11:05:42;;;;;;;591.75;526.38;;;;;;;-142.06;100.00;58987.19;7382472;19;20338;-60
2022/11/28 11:08:24;;;;;;;580.28;516.65;;;;;;;-142.06;100.00;58987.19;7386398;19;20454;-59
2022/11/28 11:11:03;;;;;;;579.70;512.50;;;;;;;-142.06;100.00;58987.19;7382256;19;20014;-58
2022/11/28 11:13:40;;;;;;;590.60;519.53;;;;;;;-142.06;100.00;58987.19;7381367;19;20009;-60
2022/11/28 11:16:16;;;;;;;577.50;504.52;;;;;;;-142.06;100.00;58987.19;7384559;19;20020;-58
2022/11/28 11:18:58;;;;;;;501.77;448.95;;;;;;;-142.06;100.00;58987.19;7384321;19;20664;-59
2022/11/28 11:21:33;;;;;;;496.58;444.05;;;;;;;-142.06;100.00;58987.19;7387689;19;20008;-59